Time;durP1;ratioP1;P1;durP2;ratioP2;P2;SDS_P1;SDS_P2;PMS_P1;PMS_P2;Temp;Humidity;BMP_temperature;BMP_pressure;BME280_temperature;BME280_humidity;BME280_pressure;Samples;Min_cycle;Max_cycle;Signal;HPM_P1;HPM_P2
2022/04/08 00:01:28;;;;;;;0.25;0.25;;;;;;;;;;5022984;28;20504;-70
2022/04/08 00:03:55;;;;;;;2.63;0.45;;;;;;;;;;5006601;28;20180;-69
2022/04/08 00:06:21;;;;;;;0.90;0.40;;;;;;;;;;5021919;28;20025;-70
2022/04/08 00:08:48;;;;;;;0.43;0.40;;;;;;;;;;5022947;28;20034;-69
2022/04/08 00:11:13;;;;;;;1.08;0.70;;;;;;;;;;5023981;28;20037;-69
2022/04/08 00:13:39;;;;;;;0.40;0.40;;;;;;;;;;5024802;28;20073;-68
2022/04/08 00:16:07;;;;;;;1.10;0.40;;;;;;;;;;5021626;28;20085;-67
2022/04/08 00:18:33;;;;;;;0.40;0.40;;;;;;;;;;5022503;28;20080;-68
2022/04/08 00:20:59;;;;;;;2.55;0.57;;;;;;;;;;5021611;28;20398;-67
2022/04/08 00:23:25;;;;;;;0.40;0.38;;;;;;;;;;5023573;28;20029;-68
2022/04/08 00:25:54;;;;;;;0.55;0.30;;;;;;;;;;5022326;28;20148;-67
2022/04/08 00:28:20;;;;;;;1.25;0.45;;;;;;;;;;5021524;28;20982;-68
2022/04/08 00:30:45;;;;;;;2.63;0.77;;;;;;;;;;5021048;28;20037;-67
2022/04/08 00:33:10;;;;;;;0.25;0.25;;;;;;;;;;5022891;28;20037;-67
2022/04/08 00:35:36;;;;;;;0.60;0.50;;;;;;;;;;5022612;28;20029;-68
2022/04/08 00:38:02;;;;;;;1.02;0.47;;;;;;;;;;5022634;28;20048;-68
2022/04/08 00:40:27;;;;;;;1.80;0.40;;;;;;;;;;5021013;28;20033;-68
2022/04/08 00:42:53;;;;;;;4.68;0.25;;;;;;;;;;5021019;28;20041;-68
2022/04/08 00:45:18;;;;;;;0.35;0.30;;;;;;;;;;5022839;28;20037;-68
2022/04/08 00:47:44;;;;;;;0.35;0.35;;;;;;;;;;5022221;28;20033;-68
2022/04/08 00:50:11;;;;;;;0.40;0.40;;;;;;;;;;5020714;28;20065;-68
2022/04/08 00:52:39;;;;;;;0.57;0.55;;;;;;;;;;5020775;28;20140;-67
2022/04/08 00:55:06;;;;;;;0.50;0.50;;;;;;;;;;5022285;28;20115;-68
2022/04/08 00:57:33;;;;;;;0.40;0.40;;;;;;;;;;5020614;28;20167;-68
2022/04/08 01:00:07;;;;;;;0.60;0.50;;;;;;;;;;5022633;28;20459;-68
2022/04/08 01:02:33;;;;;;;0.57;0.40;;;;;;;;;;5019578;28;20033;-68
2022/04/08 01:04:58;;;;;;;2.63;0.57;;;;;;;;;;5022397;28;20030;-68
2022/04/08 01:07:24;;;;;;;0.75;0.30;;;;;;;;;;5021873;28;20257;-68
2022/04/08 01:09:51;;;;;;;0.35;0.35;;;;;;;;;;5017113;28;20050;-68
2022/04/08 01:12:16;;;;;;;0.50;0.50;;;;;;;;;;5020620;28;20034;-68
2022/04/08 01:14:42;;;;;;;1.75;0.80;;;;;;;;;;5021772;28;20033;-68
2022/04/08 01:17:07;;;;;;;2.22;0.60;;;;;;;;;;5022001;28;20441;-67
2022/04/08 01:19:33;;;;;;;1.20;0.95;;;;;;;;;;5021802;28;20042;-68
2022/04/08 01:21:58;;;;;;;1.80;0.60;;;;;;;;;;5022316;28;20018;-68
2022/04/08 01:24:25;;;;;;;1.50;0.85;;;;;;;;;;5020547;28;20194;-68
2022/04/08 01:26:52;;;;;;;1.95;0.85;;;;;;;;;;5022004;28;20041;-68
2022/04/08 01:29:17;;;;;;;2.70;0.52;;;;;;;;;;5021438;28;20088;-68
2022/04/08 01:31:45;;;;;;;1.17;0.60;;;;;;;;;;5021711;28;20699;-69
2022/04/08 01:34:14;;;;;;;2.90;0.70;;;;;;;;;;5020747;28;20083;-68
2022/04/08 01:36:40;;;;;;;2.13;0.80;;;;;;;;;;5020103;28;20037;-68
2022/04/08 01:39:06;;;;;;;2.75;0.80;;;;;;;;;;5020004;28;20040;-68
2022/04/08 01:41:31;;;;;;;0.40;0.40;;;;;;;;;;5021881;28;20446;-68
2022/04/08 01:44:00;;;;;;;1.30;0.68;;;;;;;;;;5021558;28;20602;-67
2022/04/08 01:46:25;;;;;;;0.60;0.60;;;;;;;;;;5019692;28;20065;-68
2022/04/08 01:48:54;;;;;;;0.80;0.63;;;;;;;;;;5021055;28;20061;-68
2022/04/08 01:51:20;;;;;;;0.82;0.70;;;;;;;;;;5021478;28;20453;-68
2022/04/08 01:53:46;;;;;;;3.83;0.70;;;;;;;;;;5020743;28;20391;-68
2022/04/08 01:56:11;;;;;;;1.23;0.77;;;;;;;;;;5019743;28;20048;-68
2022/04/08 01:58:37;;;;;;;1.52;0.65;;;;;;;;;;5021070;28;20042;-68
2022/04/08 02:01:03;;;;;;;1.75;0.70;;;;;;;;;;5021313;28;21114;-68
2022/04/08 02:03:28;;;;;;;1.35;0.80;;;;;;;;;;5018728;28;20033;-68
2022/04/08 02:05:54;;;;;;;3.13;0.90;;;;;;;;;;5020787;28;20473;-68
2022/04/08 02:08:19;;;;;;;2.35;0.80;;;;;;;;;;5001759;28;20033;-68
2022/04/08 02:10:45;;;;;;;2.70;1.10;;;;;;;;;;5020907;28;20150;-68
2022/04/08 02:13:10;;;;;;;1.92;0.90;;;;;;;;;;5019982;28;20423;-68
2022/04/08 02:15:37;;;;;;;6.70;1.00;;;;;;;;;;5019982;28;20033;-68
2022/04/08 02:18:02;;;;;;;8.15;1.02;;;;;;;;;;5019497;28;20037;-68
2022/04/08 02:20:29;;;;;;;4.97;1.20;;;;;;;;;;5020975;28;20040;-68
2022/04/08 02:22:55;;;;;;;6.05;1.33;;;;;;;;;;5019322;28;20037;-68
2022/04/08 02:25:20;;;;;;;4.72;1.58;;;;;;;;;;5020407;28;20033;-68
2022/04/08 02:27:46;;;;;;;6.80;1.73;;;;;;;;;;5019555;28;20044;-68
2022/04/08 02:30:14;;;;;;;6.05;1.35;;;;;;;;;;5019099;28;20041;-68
2022/04/08 02:32:40;;;;;;;8.73;1.92;;;;;;;;;;5021152;28;20034;-68
2022/04/08 02:35:06;;;;;;;8.32;2.05;;;;;;;;;;5020269;28;20106;-68
2022/04/08 02:37:31;;;;;;;3.75;1.65;;;;;;;;;;5020796;28;20029;-68
2022/04/08 02:39:57;;;;;;;7.35;2.03;;;;;;;;;;5019198;28;20030;-68
2022/04/08 02:42:23;;;;;;;10.38;2.42;;;;;;;;;;5020930;28;20030;-68
2022/04/08 02:44:48;;;;;;;10.15;1.40;;;;;;;;;;5020453;28;20048;-68
2022/04/08 02:47:14;;;;;;;6.55;2.17;;;;;;;;;;5020442;28;20156;-68
2022/04/08 02:49:39;;;;;;;1.77;1.48;;;;;;;;;;5020843;28;20041;-68
2022/04/08 02:52:05;;;;;;;6.47;1.70;;;;;;;;;;5018730;28;20037;-68
2022/04/08 02:54:30;;;;;;;7.95;1.50;;;;;;;;;;5020494;28;20057;-68
2022/04/08 02:56:56;;;;;;;4.63;1.70;;;;;;;;;;5020214;28;20033;-68
2022/04/08 02:59:21;;;;;;;7.22;1.95;;;;;;;;;;5020901;28;20033;-68
2022/04/08 03:01:47;;;;;;;7.70;1.70;;;;;;;;;;5017977;28;20116;-68
2022/04/08 03:04:12;;;;;;;7.55;1.65;;;;;;;;;;5022122;28;20043;-68
2022/04/08 03:06:37;;;;;;;7.10;1.92;;;;;;;;;;5024031;28;20049;-69
2022/04/08 03:09:04;;;;;;;6.93;1.20;;;;;;;;;;5021503;28;20095;-68
2022/04/08 03:11:29;;;;;;;4.97;1.38;;;;;;;;;;5023335;28;20083;-68
2022/04/08 03:13:59;;;;;;;2.80;1.27;;;;;;;;;;5022796;28;20108;-68
2022/04/08 03:16:25;;;;;;;3.55;1.70;;;;;;;;;;5023853;28;20030;-68
2022/04/08 03:18:50;;;;;;;4.00;1.98;;;;;;;;;;5020349;28;20052;-68
2022/04/08 03:21:16;;;;;;;7.75;2.47;;;;;;;;;;5021181;28;20030;-68
2022/04/08 03:23:43;;;;;;;6.82;1.77;;;;;;;;;;5022229;28;20041;-68
2022/04/08 03:26:08;;;;;;;9.18;1.70;;;;;;;;;;5023608;28;20064;-68
2022/04/08 03:28:34;;;;;;;9.73;1.70;;;;;;;;;;5022481;28;20159;-68
2022/04/08 03:31:01;;;;;;;6.05;1.90;;;;;;;;;;5024374;28;20038;-71
2022/04/08 03:33:26;;;;;;;8.15;2.10;;;;;;;;;;5022838;28;20128;-69
2022/04/08 03:35:52;;;;;;;4.45;1.83;;;;;;;;;;5022216;28;20124;-68
2022/04/08 03:38:17;;;;;;;5.32;2.08;;;;;;;;;;5023720;28;20084;-69
2022/04/08 03:40:43;;;;;;;2.75;1.52;;;;;;;;;;5023415;28;20041;-69
2022/04/08 03:43:08;;;;;;;12.43;2.08;;;;;;;;;;5023331;28;20033;-69
2022/04/08 03:45:34;;;;;;;5.43;1.90;;;;;;;;;;5022617;28;20041;-69
2022/04/08 03:47:59;;;;;;;3.38;1.55;;;;;;;;;;5023687;28;20034;-68
2022/04/08 03:50:25;;;;;;;1.80;1.17;;;;;;;;;;5021678;28;20042;-68
2022/04/08 03:52:51;;;;;;;11.50;1.42;;;;;;;;;;5023605;28;20053;-69
2022/04/08 03:55:17;;;;;;;8.32;1.50;;;;;;;;;;5023769;28;20045;-68
2022/04/08 03:57:42;;;;;;;8.77;1.05;;;;;;;;;;5021691;28;20037;-68
2022/04/08 04:00:08;;;;;;;6.20;1.60;;;;;;;;;;5023124;28;20055;-68
2022/04/08 04:02:35;;;;;;;5.93;1.58;;;;;;;;;;5023540;28;20072;-68
2022/04/08 04:05:02;;;;;;;4.20;1.63;;;;;;;;;;5023753;28;20025;-68
2022/04/08 04:07:28;;;;;;;4.80;1.50;;;;;;;;;;5022061;28;20042;-68
2022/04/08 04:09:53;;;;;;;1.95;1.02;;;;;;;;;;5023057;28;20043;-68
2022/04/08 04:12:19;;;;;;;3.50;1.30;;;;;;;;;;5023158;28;20032;-69
2022/04/08 04:14:44;;;;;;;6.03;1.60;;;;;;;;;;5021839;28;20124;-69
2022/04/08 04:17:11;;;;;;;10.10;1.60;;;;;;;;;;5004900;28;20083;-69
2022/04/08 04:19:37;;;;;;;14.20;1.80;;;;;;;;;;5020028;28;20033;-68
2022/04/08 04:22:03;;;;;;;2.38;1.10;;;;;;;;;;5022947;28;20034;-68
2022/04/08 04:24:29;;;;;;;4.63;1.60;;;;;;;;;;5023342;28;20370;-69
2022/04/08 04:26:54;;;;;;;6.72;2.40;;;;;;;;;;5021531;28;20044;-69
2022/04/08 04:29:20;;;;;;;6.32;1.63;;;;;;;;;;5021747;28;20033;-68
2022/04/08 04:31:46;;;;;;;6.38;1.55;;;;;;;;;;5022116;28;20052;-68
2022/04/08 04:34:12;;;;;;;8.32;1.83;;;;;;;;;;5023977;28;20525;-68
2022/04/08 04:36:37;;;;;;;5.57;1.73;;;;;;;;;;5022371;28;21008;-68
2022/04/08 04:39:03;;;;;;;2.40;1.05;;;;;;;;;;5021157;28;20126;-68
2022/04/08 04:41:28;;;;;;;2.95;1.08;;;;;;;;;;5019798;28;20025;-68
2022/04/08 04:43:53;;;;;;;6.75;1.30;;;;;;;;;;5022651;28;20049;-68
2022/04/08 04:46:19;;;;;;;5.88;0.98;;;;;;;;;;5022985;28;21081;-68
2022/04/08 04:48:45;;;;;;;1.15;0.90;;;;;;;;;;5022349;28;20083;-68
2022/04/08 04:51:13;;;;;;;0.88;0.88;;;;;;;;;;5020992;28;20036;-68
2022/04/08 04:53:39;;;;;;;1.05;0.68;;;;;;;;;;5022726;28;21175;-68
2022/04/08 04:56:04;;;;;;;2.78;0.70;;;;;;;;;;5022418;28;20545;-68
2022/04/08 04:58:30;;;;;;;1.08;0.90;;;;;;;;;;5020878;28;20037;-70
2022/04/08 05:00:55;;;;;;;8.23;1.73;;;;;;;;;;5021126;28;20083;-70
2022/04/08 05:03:21;;;;;;;1.80;0.60;;;;;;;;;;5021174;28;20025;-68
2022/04/08 05:05:47;;;;;;;3.03;1.00;;;;;;;;;;5022094;28;20120;-68
2022/04/08 05:08:12;;;;;;;0.93;0.85;;;;;;;;;;5020678;28;21003;-68
2022/04/08 05:10:38;;;;;;;1.70;1.15;;;;;;;;;;5021971;28;20099;-67
2022/04/08 05:13:03;;;;;;;5.50;0.95;;;;;;;;;;5022114;28;20116;-68
2022/04/08 05:15:32;;;;;;;8.57;1.48;;;;;;;;;;5020500;28;20112;-67
2022/04/08 05:17:58;;;;;;;6.80;1.05;;;;;;;;;;5021700;28;20033;-68
2022/04/08 05:20:24;;;;;;;2.67;0.90;;;;;;;;;;5021774;28;20061;-68
2022/04/08 05:22:49;;;;;;;6.13;1.40;;;;;;;;;;5021528;28;20131;-68
2022/04/08 05:25:15;;;;;;;5.63;1.17;;;;;;;;;;5020738;28;20573;-68
2022/04/08 05:27:41;;;;;;;2.50;0.80;;;;;;;;;;5021442;28;20198;-68
2022/04/08 05:30:12;;;;;;;2.40;0.95;;;;;;;;;;5018838;28;20037;-68
2022/04/08 05:32:39;;;;;;;3.90;1.17;;;;;;;;;;5018831;28;20056;-67
2022/04/08 05:35:05;;;;;;;3.53;0.98;;;;;;;;;;5020435;28;20055;-68
2022/04/08 05:37:30;;;;;;;1.42;0.68;;;;;;;;;;5019354;28;20508;-68
2022/04/08 05:39:56;;;;;;;2.30;1.00;;;;;;;;;;5020159;28;20112;-68
2022/04/08 05:42:22;;;;;;;3.60;1.08;;;;;;;;;;5015741;28;20517;-69
2022/04/08 05:44:47;;;;;;;2.72;1.05;;;;;;;;;;5016064;28;20073;-69
2022/04/08 05:47:13;;;;;;;4.70;1.20;;;;;;;;;;5017807;28;20128;-68
2022/04/08 05:49:38;;;;;;;7.03;1.17;;;;;;;;;;5019436;28;20044;-68
2022/04/08 05:52:04;;;;;;;3.90;0.82;;;;;;;;;;5020103;28;20034;-68
2022/04/08 05:54:30;;;;;;;1.70;1.17;;;;;;;;;;5020405;28;20033;-69
2022/04/08 05:57:00;;;;;;;5.75;1.10;;;;;;;;;;5019726;28;20033;-69
2022/04/08 05:59:27;;;;;;;7.07;0.88;;;;;;;;;;5018200;28;20112;-68
2022/04/08 06:01:53;;;;;;;3.47;1.40;;;;;;;;;;5019350;28;20017;-69
2022/04/08 06:04:18;;;;;;;4.28;1.08;;;;;;;;;;5020141;28;20030;-68
2022/04/08 06:06:43;;;;;;;2.30;1.20;;;;;;;;;;5019730;28;20124;-69
2022/04/08 06:09:09;;;;;;;3.63;1.25;;;;;;;;;;5017430;28;20037;-69
2022/04/08 06:11:34;;;;;;;4.82;1.27;;;;;;;;;;5019532;28;20053;-69
2022/04/08 06:14:00;;;;;;;5.13;1.27;;;;;;;;;;5018823;28;20103;-69
2022/04/08 06:16:25;;;;;;;3.08;1.55;;;;;;;;;;5018969;28;20084;-69
2022/04/08 06:18:51;;;;;;;3.90;0.77;;;;;;;;;;5018665;28;20146;-69
2022/04/08 06:21:16;;;;;;;4.30;1.10;;;;;;;;;;5018659;28;21081;-68
2022/04/08 06:23:41;;;;;;;1.75;0.65;;;;;;;;;;5019096;28;20068;-69
2022/04/08 06:26:07;;;;;;;3.72;1.10;;;;;;;;;;5019114;28;20036;-70
2022/04/08 06:28:32;;;;;;;2.25;1.15;;;;;;;;;;5016313;28;20037;-70
2022/04/08 06:30:58;;;;;;;6.32;1.88;;;;;;;;;;5015402;28;20382;-69
2022/04/08 06:33:23;;;;;;;2.63;0.63;;;;;;;;;;5017559;28;20045;-70
2022/04/08 06:35:49;;;;;;;6.72;1.30;;;;;;;;;;5017483;28;20156;-69
2022/04/08 06:38:15;;;;;;;5.72;1.45;;;;;;;;;;5012370;28;20045;-69
2022/04/08 06:40:40;;;;;;;4.43;1.35;;;;;;;;;;5017007;28;20036;-70
2022/04/08 06:43:07;;;;;;;2.60;1.17;;;;;;;;;;5017360;28;20029;-69
2022/04/08 06:45:33;;;;;;;4.07;1.10;;;;;;;;;;5017615;28;20861;-68
2022/04/08 06:47:59;;;;;;;4.32;0.82;;;;;;;;;;5017770;28;20056;-69
2022/04/08 06:50:25;;;;;;;1.67;1.08;;;;;;;;;;5019080;28;20096;-68
2022/04/08 06:52:51;;;;;;;1.48;0.77;;;;;;;;;;5018179;28;20061;-69
2022/04/08 06:55:17;;;;;;;3.88;1.00;;;;;;;;;;5019483;28;20033;-68
2022/04/08 06:57:43;;;;;;;3.42;1.02;;;;;;;;;;5018274;28;20146;-68
2022/04/08 07:00:11;;;;;;;6.43;1.30;;;;;;;;;;5019169;28;20033;-68
2022/04/08 07:02:37;;;;;;;5.63;1.90;;;;;;;;;;5016723;28;20214;-69
2022/04/08 07:05:03;;;;;;;3.47;1.17;;;;;;;;;;5016690;28;20120;-69
2022/04/08 07:07:31;;;;;;;6.82;1.45;;;;;;;;;;5017176;28;20037;-69
2022/04/08 07:09:57;;;;;;;3.10;1.00;;;;;;;;;;5015846;28;20137;-69
2022/04/08 07:12:27;;;;;;;4.13;1.23;;;;;;;;;;5019045;28;20116;-69
2022/04/08 07:14:52;;;;;;;4.30;1.60;;;;;;;;;;5017747;28;20033;-69
2022/04/08 07:17:34;;;;;;;2.22;1.50;;;;;;;;;;5016706;28;20059;-69
2022/04/08 07:20:00;;;;;;;2.70;1.30;;;;;;;;;;5018994;28;20043;-70
2022/04/08 07:22:26;;;;;;;3.38;1.00;;;;;;;;;;5018580;28;20025;-69
2022/04/08 07:24:52;;;;;;;3.92;1.23;;;;;;;;;;5018772;28;20115;-69
2022/04/08 07:27:19;;;;;;;5.22;1.27;;;;;;;;;;5016070;28;20418;-70
2022/04/08 07:29:45;;;;;;;3.92;1.33;;;;;;;;;;5017820;28;20147;-70
2022/04/08 07:32:11;;;;;;;7.43;1.38;;;;;;;;;;5018714;28;20435;-69
2022/04/08 07:34:37;;;;;;;3.88;1.13;;;;;;;;;;5019988;28;20036;-70
2022/04/08 07:37:05;;;;;;;2.63;1.10;;;;;;;;;;5012784;28;20040;-70
2022/04/08 07:39:31;;;;;;;3.45;1.23;;;;;;;;;;5017106;28;20709;-69
2022/04/08 07:41:57;;;;;;;7.03;1.50;;;;;;;;;;5018553;28;20029;-70
2022/04/08 07:44:23;;;;;;;6.05;1.42;;;;;;;;;;5017171;28;20033;-70
2022/04/08 07:46:49;;;;;;;4.35;1.38;;;;;;;;;;5017347;28;20041;-70
2022/04/08 07:49:14;;;;;;;2.38;1.05;;;;;;;;;;5017089;28;20033;-70
2022/04/08 07:51:41;;;;;;;4.13;0.80;;;;;;;;;;5021906;28;20083;-69
2022/04/08 07:54:07;;;;;;;2.92;0.80;;;;;;;;;;5023476;28;20041;-69
2022/04/08 07:56:35;;;;;;;3.40;0.85;;;;;;;;;;5021302;28;20030;-69
2022/04/08 07:59:02;;;;;;;3.28;0.88;;;;;;;;;;5019346;28;20029;-69
2022/04/08 08:01:28;;;;;;;4.63;1.30;;;;;;;;;;5002639;28;20033;-70
2022/04/08 08:03:53;;;;;;;1.30;1.13;;;;;;;;;;5016960;28;20580;-70
2022/04/08 08:06:19;;;;;;;0.85;0.75;;;;;;;;;;5019630;28;20083;-73
2022/04/08 08:08:44;;;;;;;2.50;0.95;;;;;;;;;;5017418;28;20061;-70
2022/04/08 08:11:12;;;;;;;2.00;1.08;;;;;;;;;;5019640;28;20033;-71
2022/04/08 08:13:40;;;;;;;4.25;1.30;;;;;;;;;;5020461;28;20541;-70
2022/04/08 08:16:07;;;;;;;2.75;0.80;;;;;;;;;;5019043;28;20048;-69
2022/04/08 08:18:33;;;;;;;1.63;0.73;;;;;;;;;;5018377;28;20025;-70
2022/04/08 08:20:59;;;;;;;7.32;1.25;;;;;;;;;;5017287;28;20090;-72
2022/04/08 08:23:24;;;;;;;8.23;1.17;;;;;;;;;;5020045;28;20488;-70
2022/04/08 08:25:49;;;;;;;6.60;1.40;;;;;;;;;;5020076;28;20038;-70
2022/04/08 08:28:15;;;;;;;5.78;1.42;;;;;;;;;;5019431;28;20728;-71
2022/04/08 08:30:40;;;;;;;4.38;1.48;;;;;;;;;;5017948;28;20064;-71
2022/04/08 08:33:06;;;;;;;2.97;0.98;;;;;;;;;;5018562;28;20042;-69
2022/04/08 08:35:32;;;;;;;4.20;1.42;;;;;;;;;;5018855;28;20167;-71
2022/04/08 08:37:58;;;;;;;5.57;1.50;;;;;;;;;;5018182;28;20044;-70
2022/04/08 08:40:24;;;;;;;1.95;0.93;;;;;;;;;;5017075;28;20072;-71
2022/04/08 08:42:50;;;;;;;3.55;1.30;;;;;;;;;;5013146;28;20040;-69
2022/04/08 08:45:17;;;;;;;2.67;1.08;;;;;;;;;;5018305;28;20048;-73
2022/04/08 08:47:51;;;;;;;3.45;1.70;;;;;;;;;;5021493;28;20135;-72
2022/04/08 08:50:17;;;;;;;1.88;1.02;;;;;;;;;;5016750;28;20163;-70
2022/04/08 08:52:44;;;;;;;4.80;1.20;;;;;;;;;;5019943;28;20091;-70
2022/04/08 08:55:09;;;;;;;3.03;1.20;;;;;;;;;;5018013;28;20041;-70
2022/04/08 08:57:35;;;;;;;3.33;1.38;;;;;;;;;;5018059;28;20044;-70
2022/04/08 09:00:13;;;;;;;2.63;0.98;;;;;;;;;;5020127;28;20040;-71
2022/04/08 09:02:40;;;;;;;3.70;1.13;;;;;;;;;;5027153;28;20045;-69
2022/04/08 09:05:19;;;;;;;3.58;1.23;;;;;;;;;;5020284;28;20037;-69
2022/04/08 09:07:59;;;;;;;5.20;1.73;;;;;;;;;;5019892;28;20486;-71
2022/04/08 09:10:34;;;;;;;4.30;1.38;;;;;;;;;;5021256;28;20489;-68
2022/04/08 09:13:00;;;;;;;2.70;1.00;;;;;;;;;;5022231;28;20119;-72
2022/04/08 09:15:26;;;;;;;4.18;1.00;;;;;;;;;;5020236;28;20064;-70
2022/04/08 09:17:53;;;;;;;4.60;1.23;;;;;;;;;;5021077;28;20040;-70
2022/04/08 09:20:19;;;;;;;3.05;1.55;;;;;;;;;;5019838;28;20033;-70
2022/04/08 09:22:55;;;;;;;2.58;0.98;;;;;;;;;;5020258;28;20043;-70
2022/04/08 09:25:24;;;;;;;4.93;1.40;;;;;;;;;;5020949;28;20118;-68
2022/04/08 09:27:50;;;;;;;6.53;1.75;;;;;;;;;;5019571;28;20482;-69
2022/04/08 09:30:20;;;;;;;1.90;0.73;;;;;;;;;;5019021;28;20025;-69
2022/04/08 09:32:45;;;;;;;1.77;0.90;;;;;;;;;;5018377;28;20037;-68
2022/04/08 09:35:17;;;;;;;1.17;1.00;;;;;;;;;;5001593;28;20045;-67
2022/04/08 09:37:43;;;;;;;3.47;1.10;;;;;;;;;;5016222;28;20034;-68
2022/04/08 09:40:09;;;;;;;2.15;1.17;;;;;;;;;;5018933;28;20144;-68
2022/04/08 09:42:43;;;;;;;3.38;1.10;;;;;;;;;;5017827;28;20045;-70
2022/04/08 09:45:13;;;;;;;8.57;1.42;;;;;;;;;;5019017;28;20033;-70
2022/04/08 09:47:39;;;;;;;4.30;1.45;;;;;;;;;;5002100;28;20051;-69
2022/04/08 09:50:07;;;;;;;2.78;1.38;;;;;;;;;;5017307;28;20112;-69
2022/04/08 09:52:33;;;;;;;5.70;1.40;;;;;;;;;;5016965;28;20055;-70
2022/04/08 09:55:00;;;;;;;3.38;1.50;;;;;;;;;;5019687;28;20037;-70
2022/04/08 09:57:29;;;;;;;4.00;1.80;;;;;;;;;;5021353;28;20036;-71
2022/04/08 09:59:58;;;;;;;4.50;1.30;;;;;;;;;;5017765;28;21246;-70
2022/04/08 10:02:28;;;;;;;1.73;0.93;;;;;;;;;;5018514;28;20040;-70
2022/04/08 10:04:55;;;;;;;5.78;1.33;;;;;;;;;;5018186;28;20041;-70
2022/04/08 10:07:21;;;;;;;2.88;1.30;;;;;;;;;;5019297;28;20091;-70
2022/04/08 10:10:13;;;;;;;5.22;1.50;;;;;;;;;;5019756;28;20037;-70
2022/04/08 10:12:50;;;;;;;3.38;1.65;;;;;;;;;;5018976;28;20045;-70
2022/04/08 10:15:28;;;;;;;7.45;1.42;;;;;;;;;;5017291;28;20516;-70
2022/04/08 10:17:57;;;;;;;4.60;1.20;;;;;;;;;;5017933;28;20044;-70
2022/04/08 10:20:24;;;;;;;3.42;1.25;;;;;;;;;;5017629;28;20037;-70
2022/04/08 10:22:51;;;;;;;4.78;1.42;;;;;;;;;;5017168;28;20017;-70
2022/04/08 10:25:18;;;;;;;1.83;1.20;;;;;;;;;;5018425;28;20037;-70
2022/04/08 10:27:44;;;;;;;2.00;1.30;;;;;;;;;;5016478;28;20032;-70
2022/04/08 10:30:14;;;;;;;1.42;1.05;;;;;;;;;;5017688;28;20060;-70
2022/04/08 10:32:43;;;;;;;1.65;1.10;;;;;;;;;;5017529;28;20049;-71
2022/04/08 10:35:19;;;;;;;1.63;1.20;;;;;;;;;;5012115;28;20053;-71
2022/04/08 10:38:04;;;;;;;2.15;1.20;;;;;;;;;;5019543;28;20126;-70
2022/04/08 10:40:33;;;;;;;1.98;1.40;;;;;;;;;;5018121;28;20038;-71
2022/04/08 10:43:06;;;;;;;4.20;1.40;;;;;;;;;;5018679;28;21253;-71
2022/04/08 10:45:32;;;;;;;3.03;1.38;;;;;;;;;;5016986;28;21034;-71
2022/04/08 10:48:13;;;;;;;2.00;1.10;;;;;;;;;;5017657;28;20066;-69
2022/04/08 10:50:39;;;;;;;1.55;1.10;;;;;;;;;;5018306;28;20037;-70
2022/04/08 10:53:13;;;;;;;1.05;0.90;;;;;;;;;;5017912;28;20096;-69
2022/04/08 10:55:54;;;;;;;1.60;1.13;;;;;;;;;;5008068;28;20103;-69
2022/04/08 10:58:33;;;;;;;2.97;1.40;;;;;;;;;;5014333;28;20540;-69
2022/04/08 11:01:00;;;;;;;3.13;1.20;;;;;;;;;;5017182;28;20855;-70
2022/04/08 11:03:27;;;;;;;3.15;1.52;;;;;;;;;;5016483;28;20022;-70
2022/04/08 11:05:53;;;;;;;1.63;1.20;;;;;;;;;;5015951;28;20042;-70
2022/04/08 11:08:18;;;;;;;1.98;0.80;;;;;;;;;;5015825;28;20045;-69
2022/04/08 11:10:44;;;;;;;1.23;0.82;;;;;;;;;;5015826;28;20140;-70
2022/04/08 11:13:12;;;;;;;1.65;1.15;;;;;;;;;;5014773;28;20091;-71
2022/04/08 11:15:43;;;;;;;3.33;1.40;;;;;;;;;;5013342;28;20038;-71
2022/04/08 11:18:09;;;;;;;2.00;1.02;;;;;;;;;;5015749;28;20041;-70
2022/04/08 11:20:35;;;;;;;1.00;1.00;;;;;;;;;;5016295;28;20117;-70
2022/04/08 11:23:00;;;;;;;2.22;1.40;;;;;;;;;;5017325;28;20498;-69
2022/04/08 11:25:28;;;;;;;1.30;1.00;;;;;;;;;;5019341;28;20151;-70
2022/04/08 11:28:02;;;;;;;1.50;1.20;;;;;;;;;;5018958;28;20527;-70
2022/04/08 11:30:29;;;;;;;5.28;1.60;;;;;;;;;;5021673;28;20490;-69
2022/04/08 11:32:55;;;;;;;3.60;1.60;;;;;;;;;;5020645;28;20038;-70
2022/04/08 11:35:21;;;;;;;4.00;1.30;;;;;;;;;;5019610;28;20095;-70
2022/04/08 11:37:46;;;;;;;2.05;1.17;;;;;;;;;;5018483;28;20048;-69
2022/04/08 11:40:17;;;;;;;3.65;1.42;;;;;;;;;;5019092;28;20116;-69
2022/04/08 11:42:46;;;;;;;2.60;1.45;;;;;;;;;;5020889;28;20034;-69
2022/04/08 11:45:13;;;;;;;3.78;1.58;;;;;;;;;;5021137;28;20112;-69
2022/04/08 11:47:48;;;;;;;3.08;1.77;;;;;;;;;;5020033;28;20103;-69
2022/04/08 11:50:26;;;;;;;2.40;1.30;;;;;;;;;;5018828;28;20030;-69
2022/04/08 11:52:57;;;;;;;1.50;1.40;;;;;;;;;;5020209;28;20033;-69
2022/04/08 11:55:25;;;;;;;5.05;1.60;;;;;;;;;;5021065;28;20037;-69
2022/04/08 11:57:51;;;;;;;2.28;1.65;;;;;;;;;;5018974;28;20405;-69
2022/04/08 12:00:22;;;;;;;2.60;1.52;;;;;;;;;;5018326;28;20033;-69
2022/04/08 12:02:48;;;;;;;2.70;1.65;;;;;;;;;;5020504;28;20026;-69
2022/04/08 12:05:19;;;;;;;2.67;1.60;;;;;;;;;;5021298;28;20410;-68
2022/04/08 12:07:44;;;;;;;2.33;1.75;;;;;;;;;;5019731;28;20037;-68
2022/04/08 12:10:10;;;;;;;5.70;1.52;;;;;;;;;;5020010;28;20061;-68
2022/04/08 12:12:36;;;;;;;4.43;1.38;;;;;;;;;;5020107;28;20040;-69
2022/04/08 12:15:09;;;;;;;1.38;1.27;;;;;;;;;;5021204;28;20048;-69
2022/04/08 12:17:43;;;;;;;3.42;1.55;;;;;;;;;;5019482;28;20484;-69
2022/04/08 12:20:14;;;;;;;1.95;1.48;;;;;;;;;;5018225;28;20033;-69
2022/04/08 12:22:40;;;;;;;2.00;1.90;;;;;;;;;;5013908;28;20036;-69
2022/04/08 12:25:07;;;;;;;1.95;1.58;;;;;;;;;;5018083;28;20042;-69
2022/04/08 12:27:32;;;;;;;2.42;1.60;;;;;;;;;;5017754;28;20060;-69
2022/04/08 12:30:06;;;;;;;2.03;1.80;;;;;;;;;;5018370;28;20044;-69
2022/04/08 12:32:37;;;;;;;2.55;1.55;;;;;;;;;;5018394;28;20038;-69
2022/04/08 12:35:06;;;;;;;2.28;1.55;;;;;;;;;;5018193;28;20037;-71
2022/04/08 12:37:33;;;;;;;3.85;1.70;;;;;;;;;;5018291;28;20148;-71
2022/04/08 12:39:59;;;;;;;2.25;1.60;;;;;;;;;;5017674;28;20089;-70
2022/04/08 12:42:24;;;;;;;2.42;1.70;;;;;;;;;;5018039;28;20402;-71
2022/04/08 12:44:50;;;;;;;3.00;2.70;;;;;;;;;;5012774;28;20532;-70
2022/04/08 12:47:15;;;;;;;2.80;1.35;;;;;;;;;;5016545;28;20033;-70
2022/04/08 12:49:40;;;;;;;1.80;1.70;;;;;;;;;;5017220;28;20764;-70
2022/04/08 12:52:06;;;;;;;3.28;1.38;;;;;;;;;;5018706;28;20083;-69
2022/04/08 12:54:32;;;;;;;1.42;1.33;;;;;;;;;;5016099;28;20088;-69
2022/04/08 12:56:57;;;;;;;3.15;1.33;;;;;;;;;;5015882;28;20060;-68
2022/04/08 12:59:22;;;;;;;2.00;1.45;;;;;;;;;;5017091;28;20575;-69
2022/04/08 13:01:48;;;;;;;1.80;1.13;;;;;;;;;;5015186;28;20856;-69
2022/04/08 13:04:13;;;;;;;1.40;1.30;;;;;;;;;;5016295;28;20496;-69
2022/04/08 13:06:39;;;;;;;1.40;1.20;;;;;;;;;;5014542;28;20949;-69
2022/04/08 13:09:04;;;;;;;1.70;1.40;;;;;;;;;;5016887;28;20065;-69
2022/04/08 13:11:30;;;;;;;0.80;0.80;;;;;;;;;;5021567;28;20832;-68
2022/04/08 13:13:56;;;;;;;1.55;1.42;;;;;;;;;;5021944;28;20559;-69
2022/04/08 13:16:21;;;;;;;1.73;1.50;;;;;;;;;;5019173;28;20040;-67
2022/04/08 13:18:46;;;;;;;1.50;1.40;;;;;;;;;;5018995;28;20026;-67
2022/04/08 13:21:12;;;;;;;1.38;1.27;;;;;;;;;;5018021;28;20497;-68
2022/04/08 13:23:38;;;;;;;1.52;1.33;;;;;;;;;;5019584;28;20090;-67
2022/04/08 13:26:03;;;;;;;3.40;1.55;;;;;;;;;;5018986;28;20088;-67
2022/04/08 13:28:29;;;;;;;2.83;1.42;;;;;;;;;;5017388;28;20512;-67
2022/04/08 13:30:54;;;;;;;2.63;1.45;;;;;;;;;;5018651;28;20037;-68
2022/04/08 13:33:20;;;;;;;2.40;1.83;;;;;;;;;;5019777;28;20095;-68
2022/04/08 13:35:45;;;;;;;1.85;1.58;;;;;;;;;;5018746;28;20033;-68
2022/04/08 13:38:11;;;;;;;3.92;1.65;;;;;;;;;;5017309;28;20486;-68
2022/04/08 13:40:36;;;;;;;2.72;1.77;;;;;;;;;;5018566;28;20164;-66
2022/04/08 13:43:04;;;;;;;2.75;1.67;;;;;;;;;;5019629;28;20037;-66
2022/04/08 13:45:30;;;;;;;2.55;1.40;;;;;;;;;;5018887;28;20474;-67
2022/04/08 13:47:55;;;;;;;2.50;1.40;;;;;;;;;;5018712;28;20037;-67
2022/04/08 13:50:21;;;;;;;2.92;1.70;;;;;;;;;;5017956;28;20044;-67
2022/04/08 13:52:46;;;;;;;2.20;1.60;;;;;;;;;;5019912;28;20096;-67
2022/04/08 13:55:14;;;;;;;1.25;1.02;;;;;;;;;;5020852;28;20029;-67
2022/04/08 13:57:39;;;;;;;1.10;1.05;;;;;;;;;;5020185;28;20056;-67
2022/04/08 14:00:06;;;;;;;0.70;0.70;;;;;;;;;;5020628;28;20021;-67
2022/04/08 14:02:32;;;;;;;1.10;0.60;;;;;;;;;;5019366;28;20033;-66
2022/04/08 14:04:58;;;;;;;0.45;0.45;;;;;;;;;;5020256;28;20033;-67
2022/04/08 14:07:23;;;;;;;1.35;0.60;;;;;;;;;;5019588;28;20041;-67
2022/04/08 14:09:49;;;;;;;0.20;0.20;;;;;;;;;;5020564;28;20033;-67
2022/04/08 14:12:15;;;;;;;0.38;0.28;;;;;;;;;;5017936;28;20049;-66
2022/04/08 14:14:41;;;;;;;0.40;0.40;;;;;;;;;;5020802;28;20034;-66
2022/04/08 14:17:07;;;;;;;1.50;0.20;;;;;;;;;;5019139;28;20132;-67
2022/04/08 14:19:33;;;;;;;1.10;0.57;;;;;;;;;;5021037;28;20116;-67
2022/04/08 14:21:58;;;;;;;0.75;0.60;;;;;;;;;;5020260;28;20029;-67
2022/04/08 14:24:26;;;;;;;0.55;0.50;;;;;;;;;;5019309;28;20119;-67
2022/04/08 14:26:51;;;;;;;0.20;0.20;;;;;;;;;;5019987;28;20037;-67
2022/04/08 14:29:17;;;;;;;0.80;0.30;;;;;;;;;;5020426;28;20039;-69
2022/04/08 14:31:44;;;;;;;0.30;0.30;;;;;;;;;;5019443;28;20517;-66
2022/04/08 14:34:09;;;;;;;0.40;0.20;;;;;;;;;;5019241;28;20025;-68
2022/04/08 14:36:37;;;;;;;0.50;0.30;;;;;;;;;;5018102;28;20060;-67
2022/04/08 14:39:03;;;;;;;0.50;0.45;;;;;;;;;;5016999;28;20044;-67
2022/04/08 14:41:30;;;;;;;0.40;0.40;;;;;;;;;;5018303;28;20036;-68